createdAt,value
2022-11-10T00:01:13.076Z,99.90
2022-11-10T00:03:41.314Z,99.90
2022-11-10T00:06:10.594Z,99.90
2022-11-10T00:08:40.046Z,99.90
2022-11-10T00:11:09.157Z,99.90
2022-11-10T00:13:59.917Z,99.90
2022-11-10T00:16:45.522Z,99.90
2022-11-10T00:19:13.692Z,99.90
2022-11-10T00:21:41.664Z,99.90
2022-11-10T00:24:11.295Z,99.90
2022-11-10T00:26:39.556Z,99.90
2022-11-10T00:29:07.618Z,99.90
2022-11-10T00:31:35.633Z,99.90
2022-11-10T00:34:03.761Z,99.90
2022-11-10T00:36:32.131Z,99.90
2022-11-10T00:39:00.205Z,99.90
2022-11-10T00:41:29.664Z,99.90
2022-11-10T00:43:58.137Z,99.90
2022-11-10T00:46:26.303Z,99.90
2022-11-10T00:48:54.444Z,99.90
2022-11-10T00:51:24.948Z,99.90
2022-11-10T00:53:53.790Z,99.90
2022-11-10T00:56:23.332Z,99.90
2022-11-10T00:58:53.022Z,99.90
2022-11-10T01:01:24.081Z,99.90
2022-11-10T01:03:52.923Z,99.90
2022-11-10T01:06:22.424Z,99.90
2022-11-10T01:08:50.488Z,99.90
2022-11-10T01:11:20.562Z,99.90
2022-11-10T01:13:50.520Z,99.90
2022-11-10T01:16:21.850Z,99.90
2022-11-10T01:18:51.769Z,99.90
2022-11-10T01:21:20.075Z,99.90
2022-11-10T01:23:48.550Z,99.90
2022-11-10T01:26:17.475Z,99.90
2022-11-10T01:28:46.285Z,99.90
2022-11-10T01:31:16.091Z,99.90
2022-11-10T01:33:45.761Z,99.90
2022-11-10T01:36:14.387Z,99.90
2022-11-10T01:38:44.036Z,99.90
2022-11-10T01:41:15.087Z,99.90
2022-11-10T01:43:43.431Z,99.90
2022-11-10T01:46:12.954Z,99.90
2022-11-10T01:48:47.453Z,99.90
2022-11-10T01:51:20.079Z,99.90
2022-11-10T01:53:51.913Z,99.90
2022-11-10T01:56:21.370Z,99.90
2022-11-10T01:58:54.142Z,99.90
2022-11-10T02:01:22.147Z,99.90
2022-11-10T02:03:53.718Z,99.90
2022-11-10T02:06:25.747Z,99.90
2022-11-10T02:08:54.980Z,99.90
2022-11-10T02:11:23.727Z,99.90
2022-11-10T02:13:52.540Z,99.90
2022-11-10T02:16:20.952Z,99.90
2022-11-10T02:18:49.402Z,99.90
2022-11-10T02:21:19.845Z,99.90
2022-11-10T02:23:49.977Z,99.90
2022-11-10T02:26:23.017Z,99.90
2022-11-10T02:28:51.183Z,99.90
2022-11-10T02:31:19.232Z,99.90
2022-11-10T02:33:47.438Z,99.90
2022-11-10T02:36:15.482Z,99.90
2022-11-10T02:38:44.970Z,99.90
2022-11-10T02:41:12.955Z,99.90
2022-11-10T02:43:41.238Z,99.90
2022-11-10T02:46:09.221Z,99.90
2022-11-10T02:48:37.377Z,99.90
2022-11-10T02:51:05.495Z,99.90
2022-11-10T02:53:33.527Z,99.90
2022-11-10T02:56:03.071Z,99.90
2022-11-10T02:58:31.198Z,99.90
2022-11-10T03:00:59.306Z,99.90
2022-11-10T03:03:27.632Z,99.90
2022-11-10T03:05:55.696Z,99.90
2022-11-10T03:08:23.694Z,99.90
2022-11-10T03:10:55.252Z,99.90
2022-11-10T03:13:32.111Z,99.90
2022-11-10T03:16:08.554Z,99.90
2022-11-10T03:18:36.700Z,99.90
2022-11-10T03:21:04.826Z,99.90
2022-11-10T03:23:34.166Z,99.90
2022-11-10T03:26:05.401Z,99.90
2022-11-10T03:28:35.488Z,99.90
2022-11-10T03:31:03.582Z,99.90
2022-11-10T03:33:31.748Z,99.90
2022-11-10T03:35:59.764Z,99.90
2022-11-10T03:38:27.818Z,99.90
2022-11-10T03:43:45.500Z,99.90
2022-11-10T03:46:13.608Z,99.90
2022-11-10T03:48:41.666Z,99.90
2022-11-10T03:51:09.914Z,99.90
2022-11-10T03:53:38.066Z,99.90
2022-11-10T03:56:07.651Z,99.90
2022-11-10T03:58:35.705Z,99.90
2022-11-10T04:01:05.437Z,99.90
2022-11-10T04:03:33.896Z,99.90
2022-11-10T04:06:31.123Z,99.90
2022-11-10T04:09:02.201Z,99.90
2022-11-10T04:11:49.308Z,99.90
2022-11-10T04:14:35.304Z,99.90
2022-11-10T04:17:05.048Z,99.90
2022-11-10T04:19:33.739Z,99.90
2022-11-10T04:22:01.908Z,99.90
2022-11-10T04:24:29.905Z,99.90
2022-11-10T04:26:58.233Z,99.90
2022-11-10T04:29:26.306Z,99.90
2022-11-10T04:31:54.287Z,99.90
2022-11-10T04:34:23.696Z,99.90
2022-11-10T04:36:51.905Z,99.90
2022-11-10T04:39:19.963Z,99.90
2022-11-10T04:41:48.744Z,99.90
2022-11-10T04:44:16.909Z,99.90
2022-11-10T04:46:45.497Z,99.90
2022-11-10T04:49:13.498Z,99.90
2022-11-10T04:51:42.938Z,99.90
2022-11-10T04:54:12.827Z,99.90
2022-11-10T04:56:41.295Z,99.90
2022-11-10T04:59:09.357Z,99.90
2022-11-10T05:01:37.443Z,99.90
2022-11-10T05:04:06.149Z,99.90
2022-11-10T05:06:34.191Z,99.90
2022-11-10T05:09:03.864Z,99.90
2022-11-10T05:11:31.904Z,99.90
2022-11-10T05:14:00.007Z,99.90
2022-11-10T05:16:27.993Z,99.90
2022-11-10T05:18:58.303Z,99.90
2022-11-10T05:21:26.399Z,99.90
2022-11-10T05:23:54.443Z,99.90
2022-11-10T05:26:23.816Z,99.90
2022-11-10T05:28:51.890Z,99.90
2022-11-10T05:31:19.890Z,99.90
2022-11-10T05:33:48.063Z,99.90
2022-11-10T05:36:16.165Z,99.90
2022-11-10T05:38:44.222Z,99.90
2022-11-10T05:41:12.739Z,99.90
2022-11-10T05:43:42.229Z,99.90
2022-11-10T05:46:10.291Z,99.90
2022-11-10T05:48:38.330Z,99.90
2022-11-10T05:51:06.885Z,99.90
2022-11-10T05:53:35.092Z,99.90
2022-11-10T05:56:03.141Z,99.90
2022-11-10T05:58:31.248Z,99.90
2022-11-10T06:01:00.557Z,99.90
2022-11-10T06:03:28.849Z,99.90
2022-11-10T06:05:57.015Z,99.90
2022-11-10T06:08:25.135Z,99.90
2022-11-10T06:10:53.746Z,99.90
2022-11-10T06:13:22.187Z,99.90
2022-11-10T06:15:50.816Z,99.90
2022-11-10T06:18:23.258Z,99.90
2022-11-10T06:20:51.227Z,99.90
2022-11-10T06:23:19.796Z,99.90
2022-11-10T06:25:48.094Z,99.90
2022-11-10T06:28:16.182Z,99.90
2022-11-10T06:30:44.394Z,99.90
2022-11-10T06:33:12.586Z,99.90
2022-11-10T06:35:42.080Z,99.90
2022-11-10T06:38:12.696Z,99.90
2022-11-10T06:40:40.780Z,99.90
2022-11-10T06:43:09.015Z,99.90
2022-11-10T06:45:37.444Z,99.90
2022-11-10T06:48:07.477Z,99.90
2022-11-10T06:50:35.791Z,99.90
2022-11-10T06:53:05.655Z,99.90
2022-11-10T06:55:33.702Z,99.90
2022-11-10T06:58:02.091Z,99.90
2022-11-10T07:00:30.943Z,99.90
2022-11-10T07:03:03.534Z,99.90
2022-11-10T07:05:31.955Z,99.90
2022-11-10T07:08:05.267Z,99.90
2022-11-10T07:10:33.405Z,99.90
2022-11-10T07:13:02.365Z,99.90
2022-11-10T07:15:30.784Z,99.90
2022-11-10T07:17:58.872Z,99.90
2022-11-10T07:20:28.655Z,99.90
2022-11-10T07:23:01.401Z,99.90
2022-11-10T07:25:32.261Z,99.90
2022-11-10T07:28:01.902Z,99.90
2022-11-10T07:30:31.535Z,99.90
2022-11-10T07:33:01.456Z,99.90
2022-11-10T07:35:29.989Z,99.90
2022-11-10T07:37:58.866Z,99.90
2022-11-10T07:40:27.133Z,99.90
2022-11-10T07:42:56.791Z,99.90
2022-11-10T07:45:24.917Z,99.90
2022-11-10T07:47:53.077Z,99.90
2022-11-10T07:50:21.185Z,99.90
2022-11-10T07:52:49.419Z,99.90
2022-11-10T07:55:17.586Z,99.90
2022-11-10T07:57:45.595Z,99.90
2022-11-10T08:00:16.674Z,99.90
2022-11-10T08:02:44.767Z,99.90
2022-11-10T08:05:12.870Z,99.90
2022-11-10T08:07:41.305Z,99.90
2022-11-10T08:10:10.732Z,99.90
2022-11-10T08:12:38.923Z,99.90
2022-11-10T08:15:07.612Z,99.90
2022-11-10T08:17:39.578Z,99.90
2022-11-10T08:20:09.107Z,99.90
2022-11-10T08:22:37.472Z,99.90
2022-11-10T08:25:06.281Z,99.90
2022-11-10T08:27:34.328Z,99.90
2022-11-10T08:30:02.394Z,99.90
2022-11-10T08:32:30.504Z,99.90
2022-11-10T08:35:00.117Z,99.90
2022-11-10T08:37:28.743Z,99.90
2022-11-10T08:39:56.855Z,99.90
2022-11-10T08:42:24.894Z,99.90
2022-11-10T08:44:52.963Z,99.90
2022-11-10T08:47:21.016Z,99.90
2022-11-10T08:49:49.463Z,99.90
2022-11-10T08:52:18.894Z,99.90
2022-11-10T08:54:46.987Z,99.90
2022-11-10T08:57:15.000Z,99.90
2022-11-10T08:59:43.060Z,99.90
2022-11-10T09:02:11.718Z,99.90
2022-11-10T09:04:39.908Z,99.90
2022-11-10T09:07:08.113Z,99.90
2022-11-10T09:09:37.665Z,99.90
2022-11-10T09:12:06.397Z,99.90
2022-11-10T09:14:34.463Z,99.90
2022-11-10T09:17:02.781Z,99.90
2022-11-10T09:19:30.885Z,99.90
2022-11-10T09:21:58.993Z,99.90
2022-11-10T09:24:31.224Z,99.90
2022-11-10T09:27:00.982Z,99.90
2022-11-10T09:29:29.008Z,99.90
2022-11-10T09:31:57.251Z,99.90
2022-11-10T09:34:25.373Z,99.90
2022-11-10T09:36:53.495Z,99.90
2022-11-10T09:39:21.580Z,99.90
2022-11-10T09:41:49.733Z,99.90
2022-11-10T09:44:25.286Z,99.90
2022-11-10T09:46:58.545Z,99.90
2022-11-10T09:49:32.627Z,99.90
2022-11-10T09:52:02.810Z,99.90
2022-11-10T09:54:37.459Z,99.90
2022-11-10T09:57:08.407Z,99.90
2022-11-10T09:59:38.080Z,99.90
2022-11-10T10:02:13.286Z,99.90
2022-11-10T10:05:01.947Z,99.90
2022-11-10T10:07:37.563Z,99.90
2022-11-10T10:10:17.557Z,99.90
2022-11-10T10:12:58.618Z,99.90
2022-11-10T10:15:36.278Z,99.90
2022-11-10T10:18:16.636Z,99.90
2022-11-10T10:20:56.586Z,99.90
2022-11-10T10:24:02.183Z,99.90
2022-11-10T10:26:22.723Z,99.90
2022-11-10T10:28:52.514Z,99.90
2022-11-10T10:31:25.328Z,99.90
2022-11-10T10:33:54.617Z,99.90
2022-11-10T10:36:26.794Z,99.90
2022-11-10T10:38:57.825Z,99.90
2022-11-10T10:41:27.353Z,97.00
2022-11-10T10:43:58.256Z,92.10
2022-11-10T10:46:32.885Z,90.20
2022-11-10T10:49:28.051Z,86.50
2022-11-10T10:52:08.228Z,79.30
2022-11-10T10:54:38.316Z,80.10
2022-11-10T10:57:19.750Z,76.80
2022-11-10T10:59:48.169Z,75.50
2022-11-10T11:02:27.563Z,74.30
2022-11-10T11:05:21.016Z,74.00
2022-11-10T11:07:56.460Z,71.40
2022-11-10T11:10:26.506Z,70.80
2022-11-10T11:12:54.571Z,69.10
2022-11-10T11:15:26.934Z,72.80
2022-11-10T11:17:58.450Z,72.70
2022-11-10T11:20:38.924Z,74.50
2022-11-10T11:23:34.953Z,71.70
2022-11-10T11:26:10.695Z,74.60
2022-11-10T11:28:50.379Z,73.80
2022-11-10T11:31:24.683Z,76.90
2022-11-10T11:34:01.879Z,78.80
2022-11-10T11:36:39.459Z,79.80
2022-11-10T11:39:20.192Z,80.90
2022-11-10T11:41:57.854Z,76.80
2022-11-10T11:44:51.956Z,77.70
2022-11-10T11:47:34.599Z,81.60
2022-11-10T11:50:17.427Z,83.30
2022-11-10T11:52:58.839Z,85.00
2022-11-10T11:55:39.647Z,83.30
2022-11-10T11:58:25.273Z,81.80
2022-11-10T12:01:02.331Z,81.60
2022-11-10T12:03:55.705Z,81.50
2022-11-10T12:06:33.285Z,84.00
2022-11-10T12:09:07.186Z,85.40
2022-11-10T12:11:52.365Z,87.20
2022-11-10T12:14:31.272Z,85.80
2022-11-10T12:17:06.947Z,84.10
2022-11-10T12:19:42.255Z,83.40
2022-11-10T12:22:19.269Z,85.40
2022-11-10T12:25:08.027Z,85.70
2022-11-10T12:27:40.049Z,87.30
2022-11-10T12:30:12.743Z,86.50
2022-11-10T12:32:46.607Z,86.60
2022-11-10T12:35:19.989Z,85.70
2022-11-10T12:37:53.887Z,85.80
2022-11-10T12:40:23.687Z,86.80
2022-11-10T12:42:58.069Z,86.30
2022-11-10T12:45:31.619Z,84.30
2022-11-10T12:48:01.569Z,84.40
2022-11-10T12:50:40.476Z,83.80
2022-11-10T12:53:16.938Z,83.60
2022-11-10T12:55:48.770Z,83.50
2022-11-10T12:58:17.077Z,85.90
2022-11-10T13:00:55.489Z,84.80
2022-11-10T13:03:29.523Z,84.60
2022-11-10T13:06:00.094Z,85.30
2022-11-10T13:08:33.008Z,84.40
2022-11-10T13:11:07.511Z,83.80
2022-11-10T13:13:45.021Z,84.90
2022-11-10T13:16:52.078Z,85.10
2022-11-10T13:19:49.309Z,86.20
2022-11-10T13:22:34.473Z,82.70
2022-11-10T13:25:39.517Z,82.90
2022-11-10T13:28:10.716Z,82.30
2022-11-10T13:30:44.888Z,82.70
2022-11-10T13:33:35.976Z,80.90
2022-11-10T13:36:04.743Z,81.70
2022-11-10T13:38:38.396Z,81.00
2022-11-10T13:41:24.824Z,84.40
2022-11-10T13:43:54.775Z,81.30
2022-11-10T13:46:33.253Z,82.90
2022-11-10T13:49:24.403Z,81.70
2022-11-10T13:52:05.965Z,82.80
2022-11-10T13:54:57.924Z,82.20
2022-11-10T13:57:31.232Z,80.60
2022-11-10T14:00:01.934Z,81.50
2022-11-10T14:03:02.237Z,80.30
2022-11-10T14:06:07.646Z,76.60
2022-11-10T14:08:49.523Z,71.10
2022-11-10T14:11:26.851Z,67.80
2022-11-10T14:14:00.178Z,65.00
2022-11-10T14:16:32.061Z,64.80
2022-11-10T14:19:04.754Z,63.20
2022-11-10T14:21:41.136Z,63.50
2022-11-10T14:24:16.225Z,62.20
2022-11-10T14:26:49.274Z,60.40
2022-11-10T14:29:29.487Z,59.70
2022-11-10T14:31:58.625Z,58.40
2022-11-10T14:34:27.799Z,60.10
2022-11-10T14:36:59.067Z,60.10
2022-11-10T14:39:32.847Z,61.30
2022-11-10T14:42:03.276Z,60.60
2022-11-10T14:44:33.034Z,62.50
2022-11-10T14:47:15.797Z,65.10
2022-11-10T14:49:44.883Z,68.80
2022-11-10T14:52:15.573Z,71.20
2022-11-10T14:54:47.042Z,74.40
2022-11-10T14:57:14.688Z,77.70
2022-11-10T14:59:42.731Z,80.70
2022-11-10T15:02:15.398Z,82.90
2022-11-10T15:04:46.058Z,84.70
2022-11-10T15:07:15.921Z,86.90
2022-11-10T15:10:05.213Z,88.80
2022-11-10T15:12:38.105Z,90.50
2022-11-10T15:15:23.699Z,90.90
2022-11-10T15:17:52.879Z,91.70
2022-11-10T15:20:32.933Z,91.90
2022-11-10T15:23:04.099Z,92.30
2022-11-10T15:25:36.136Z,93.20
2022-11-10T15:28:07.506Z,94.30
2022-11-10T15:30:36.111Z,94.70
2022-11-10T15:33:11.661Z,95.30
2022-11-10T15:35:39.847Z,96.00
2022-11-10T15:38:31.264Z,95.90
2022-11-10T15:41:17.142Z,96.30
2022-11-10T15:43:45.166Z,97.20
2022-11-10T15:46:19.491Z,97.50
2022-11-10T15:48:50.007Z,98.40
2022-11-10T15:51:25.652Z,98.60
2022-11-10T15:53:55.933Z,99.90
2022-11-10T15:56:25.688Z,99.90
2022-11-10T15:58:59.231Z,99.90
2022-11-10T16:01:30.086Z,99.90
2022-11-10T16:03:58.254Z,99.90
2022-11-10T16:06:27.526Z,99.90
2022-11-10T16:08:57.145Z,99.90
2022-11-10T16:11:25.478Z,99.90
2022-11-10T16:13:54.549Z,99.90
2022-11-10T16:16:24.191Z,99.90
2022-11-10T16:18:53.111Z,99.90
2022-11-10T16:21:23.274Z,99.90
2022-11-10T16:23:51.855Z,99.90
2022-11-10T16:26:24.103Z,99.90
2022-11-10T16:28:52.133Z,99.90
2022-11-10T16:31:22.599Z,99.90
2022-11-10T16:33:51.075Z,99.90
2022-11-10T16:36:25.724Z,99.90
2022-11-10T16:38:54.449Z,99.90
2022-11-10T16:41:24.652Z,99.90
2022-11-10T16:43:52.654Z,99.90
2022-11-10T16:46:23.143Z,99.90
2022-11-10T16:48:53.378Z,99.90
2022-11-10T16:51:30.114Z,99.90
2022-11-10T16:53:59.467Z,99.90
2022-11-10T16:56:29.052Z,99.90
2022-11-10T16:58:57.099Z,99.90
2022-11-10T17:01:27.749Z,99.90
2022-11-10T17:03:58.379Z,99.90
2022-11-10T17:06:27.962Z,99.90
2022-11-10T17:08:59.251Z,99.90
2022-11-10T17:11:28.834Z,99.90
2022-11-10T17:13:57.087Z,99.90
2022-11-10T17:16:29.737Z,99.90
2022-11-10T17:19:00.767Z,99.90
2022-11-10T17:21:33.148Z,99.90
2022-11-10T17:24:01.779Z,99.90
2022-11-10T17:26:31.904Z,99.90
2022-11-10T17:29:00.008Z,99.90
2022-11-10T17:31:28.145Z,99.90
2022-11-10T17:33:56.265Z,99.90
2022-11-10T17:36:25.222Z,99.90
2022-11-10T17:38:53.824Z,99.90
2022-11-10T17:41:22.288Z,99.90
2022-11-10T17:43:51.979Z,99.90
2022-11-10T17:46:20.221Z,99.90
2022-11-10T17:48:49.644Z,99.90
2022-11-10T17:51:20.816Z,99.90
2022-11-10T17:53:50.568Z,99.90
2022-11-10T17:56:18.931Z,99.90
2022-11-10T17:58:47.121Z,99.90
2022-11-10T18:01:22.413Z,99.90
2022-11-10T18:03:50.794Z,99.90
2022-11-10T18:06:20.280Z,99.90
2022-11-10T18:08:48.556Z,99.90
2022-11-10T18:11:18.853Z,99.90
2022-11-10T18:13:47.127Z,99.90
2022-11-10T18:16:15.542Z,99.90
2022-11-10T18:18:44.987Z,99.90
2022-11-10T18:21:13.220Z,99.90
2022-11-10T18:23:44.449Z,99.90
2022-11-10T18:26:12.748Z,99.90
2022-11-10T18:28:42.109Z,99.90
2022-11-10T18:31:12.622Z,99.90
2022-11-10T18:33:41.237Z,99.90
2022-11-10T18:36:11.367Z,99.90
2022-11-10T18:38:39.561Z,99.90
2022-11-10T18:41:26.050Z,99.90
2022-11-10T18:43:54.253Z,99.90
2022-11-10T18:46:22.486Z,99.90
2022-11-10T18:48:50.630Z,99.90
2022-11-10T18:51:20.447Z,99.90
2022-11-10T18:53:48.471Z,99.90
2022-11-10T18:56:16.568Z,99.90
2022-11-10T18:58:44.638Z,99.90
2022-11-10T19:01:12.747Z,99.90
2022-11-10T19:03:42.677Z,99.90
2022-11-10T19:06:11.379Z,99.90
2022-11-10T19:08:41.121Z,99.90
2022-11-10T19:11:11.258Z,99.90
2022-11-10T19:13:40.025Z,99.90
2022-11-10T19:16:09.921Z,99.90
2022-11-10T19:18:39.401Z,99.90
2022-11-10T19:21:08.656Z,99.90
2022-11-10T19:23:37.396Z,99.90
2022-11-10T19:26:10.026Z,99.90
2022-11-10T19:28:38.542Z,99.90
2022-11-10T19:31:08.697Z,99.90
2022-11-10T19:33:55.320Z,99.90
2022-11-10T19:36:24.994Z,99.90
2022-11-10T19:38:54.226Z,99.90
2022-11-10T19:41:25.560Z,99.90
2022-11-10T19:43:53.758Z,99.90
2022-11-10T19:46:23.498Z,99.90
2022-11-10T19:48:52.307Z,99.90
2022-11-10T19:51:22.272Z,99.90
2022-11-10T19:53:57.855Z,99.90
2022-11-10T19:56:31.464Z,99.90
2022-11-10T19:59:00.454Z,99.90
2022-11-10T20:01:29.709Z,99.90
2022-11-10T20:04:00.562Z,99.90
2022-11-10T20:06:44.690Z,99.90
2022-11-10T20:09:15.387Z,99.90
2022-11-10T20:11:48.569Z,99.90
2022-11-10T20:14:17.959Z,99.90
2022-11-10T20:16:46.048Z,99.90
2022-11-10T20:19:14.313Z,99.90
2022-11-10T20:21:45.535Z,99.90
2022-11-10T20:24:15.999Z,99.90
2022-11-10T20:26:45.434Z,99.90
2022-11-10T20:29:14.277Z,99.90
2022-11-10T20:31:42.823Z,99.90
2022-11-10T20:34:15.486Z,99.90
2022-11-10T20:36:43.822Z,99.90
2022-11-10T20:39:12.105Z,99.90
2022-11-10T20:41:41.333Z,99.90
2022-11-10T20:44:12.221Z,99.90
2022-11-10T20:46:54.140Z,99.90
2022-11-10T20:49:23.355Z,99.90
2022-11-10T20:51:51.608Z,99.90
2022-11-10T20:54:19.716Z,99.90
2022-11-10T20:56:47.952Z,99.90
2022-11-10T20:59:18.202Z,99.90
2022-11-10T21:01:46.467Z,99.90
2022-11-10T21:04:15.157Z,99.90
2022-11-10T21:06:44.031Z,99.90
2022-11-10T21:09:12.741Z,99.90
2022-11-10T21:11:58.105Z,99.90
2022-11-10T21:14:27.953Z,99.90
2022-11-10T21:16:57.935Z,99.90
2022-11-10T21:19:26.074Z,99.90
2022-11-10T21:21:54.061Z,99.90
2022-11-10T21:24:22.119Z,99.90
2022-11-10T21:26:50.167Z,99.90
2022-11-10T21:29:18.469Z,99.90
2022-11-10T21:31:48.294Z,99.90
2022-11-10T21:34:16.364Z,99.90
2022-11-10T21:36:44.501Z,99.90
2022-11-10T21:39:12.928Z,99.90
2022-11-10T21:41:41.172Z,99.90
2022-11-10T21:44:09.309Z,99.90
2022-11-10T21:46:37.416Z,99.90
2022-11-10T21:49:08.051Z,99.90
2022-11-10T21:51:36.364Z,99.90
2022-11-10T21:54:04.608Z,99.90
2022-11-10T21:56:32.665Z,99.90
2022-11-10T21:59:00.976Z,99.90
2022-11-10T22:01:29.081Z,99.90
2022-11-10T22:03:57.199Z,99.90
2022-11-10T22:06:47.699Z,99.90
2022-11-10T22:09:35.916Z,99.90
2022-11-10T22:12:21.364Z,99.90
2022-11-10T22:15:06.585Z,99.90
2022-11-10T22:17:52.363Z,99.90
2022-11-10T22:20:20.758Z,99.90
2022-11-10T22:22:50.377Z,99.90
2022-11-10T22:25:18.523Z,99.90
2022-11-10T22:27:46.568Z,99.90
2022-11-10T22:30:14.878Z,99.90
2022-11-10T22:32:42.924Z,99.90
2022-11-10T22:35:33.114Z,99.90
2022-11-10T22:38:06.385Z,99.90
2022-11-10T22:40:52.307Z,99.90
2022-11-10T22:43:37.693Z,99.90
2022-11-10T22:46:05.998Z,99.90
2022-11-10T22:48:34.657Z,99.90
2022-11-10T22:51:02.783Z,99.90
2022-11-10T22:53:37.187Z,99.90
2022-11-10T22:56:05.734Z,99.90
2022-11-10T22:58:33.862Z,99.90
2022-11-10T23:01:06.815Z,99.90
2022-11-10T23:03:35.513Z,99.90
2022-11-10T23:06:04.570Z,99.90
2022-11-10T23:08:34.370Z,99.90
2022-11-10T23:11:04.947Z,99.90
2022-11-10T23:13:35.206Z,99.90
2022-11-10T23:16:04.188Z,99.90
2022-11-10T23:18:32.341Z,99.90
2022-11-10T23:21:02.040Z,99.90
2022-11-10T23:23:34.445Z,99.90
2022-11-10T23:26:03.924Z,99.90
2022-11-10T23:28:33.602Z,99.90
2022-11-10T23:31:06.065Z,99.90
2022-11-10T23:33:34.560Z,99.90
2022-11-10T23:36:03.122Z,99.90
2022-11-10T23:38:33.955Z,99.90
2022-11-10T23:41:02.891Z,99.90
2022-11-10T23:43:31.602Z,99.90
2022-11-10T23:46:06.797Z,99.90
2022-11-10T23:48:35.156Z,99.90
2022-11-10T23:51:03.357Z,99.90
2022-11-10T23:53:31.422Z,99.90
2022-11-10T23:56:02.891Z,99.90
2022-11-10T23:58:31.641Z,99.90
